Terminal Aerodrome Forecast
Issued by NWS

Home | Current Version | Previous Version | Graphics & Text | Print | Product List | Glossary On
Versions: 1 2 3 4 5 6 7 8 9 10 11 12 13 14 15 16 17 18 19 20 21 22 23
000
FTUS43 KABR 220433 AAB
TAFATY
TAF AMD
KATY 220433Z 2205/2224 01015KT P6SM VCSH OVC005
     FM220900 02013G20KT P6SM OVC015
     FM221300 01017G24KT 1SM BR OVC003
     FM221800 01015G24KT P6SM BKN008
     FM222100 36015G23KT P6SM BKN015=

USA.gov is the U.S. government's official web portal to all federal, state and local government web resources and services.